Time;durP1;ratioP1;P1;durP2;ratioP2;P2;SDS_P1;SDS_P2;PMS_P1;PMS_P2;Temp;Humidity;BMP_temperature;BMP_pressure;BME280_temperature;BME280_humidity;BME280_pressure;Samples;Min_cycle;Max_cycle;Signal;HPM_P1;HPM_P2
2022/05/16 00:01:05;;;;;;;;;;;14.30;99.90;;;;;;5064976;28;19925;-67
2022/05/16 00:03:32;;;;;;;;;;;14.40;99.90;;;;;;5070500;28;20527;-67
2022/05/16 00:05:58;;;;;;;;;;;14.30;99.90;;;;;;5075702;28;20023;-67
2022/05/16 00:08:25;;;;;;;;;;;14.40;99.90;;;;;;5075524;28;20003;-68
2022/05/16 00:10:52;;;;;;;;;;;14.40;99.90;;;;;;5052532;28;19955;-69
2022/05/16 00:13:20;;;;;;;;;;;14.30;99.90;;;;;;5068432;28;20011;-68
2022/05/16 00:15:47;;;;;;;;;;;14.30;99.90;;;;;;5070361;28;19929;-66
2022/05/16 00:18:17;;;;;;;;;;;14.40;99.90;;;;;;5067092;28;19931;-67
2022/05/16 00:20:44;;;;;;;;;;;14.30;99.90;;;;;;5056856;28;20390;-67
2022/05/16 00:23:13;;;;;;;;;;;14.30;99.90;;;;;;5066640;28;19924;-67
2022/05/16 00:25:40;;;;;;;;;;;14.30;99.90;;;;;;5061428;28;19959;-67
2022/05/16 00:28:06;;;;;;;;;;;14.30;99.90;;;;;;5072729;28;19924;-67
2022/05/16 00:30:33;;;;;;;;;;;14.30;99.90;;;;;;5066627;28;19925;-67
2022/05/16 00:32:59;;;;;;;;;;;14.30;99.90;;;;;;5066659;28;19938;-68
2022/05/16 00:35:26;;;;;;;;;;;14.20;99.90;;;;;;5071481;28;19931;-68
2022/05/16 00:37:55;;;;;;;;;;;14.20;99.90;;;;;;5068824;28;20441;-68
2022/05/16 00:40:22;;;;;;;;;;;14.20;99.90;;;;;;5072072;28;20422;-69
2022/05/16 00:42:49;;;;;;;;;;;14.20;99.90;;;;;;5076370;28;20274;-68
2022/05/16 00:45:16;;;;;;;;;;;14.20;99.90;;;;;;5070810;28;20360;-69
2022/05/16 00:47:47;;;;;;;;;;;14.10;99.90;;;;;;5060714;28;19963;-69
2022/05/16 00:50:13;;;;;;;;;;;14.20;99.90;;;;;;5073917;28;20011;-69
2022/05/16 00:52:42;;;;;;;;;;;14.20;99.90;;;;;;5079131;28;20007;-68
2022/05/16 00:55:11;;;;;;;;;;;14.10;99.90;;;;;;5066169;28;19936;-68
2022/05/16 00:57:48;;;;;;;;;;;14.10;99.90;;;;;;5059231;28;19925;-66
2022/05/16 01:00:20;;;;;;;;;;;14.00;99.90;;;;;;5056010;28;20687;-69
2022/05/16 01:05:39;;;;;;;;;;;14.00;99.90;;;;;;5069162;28;19929;-69
2022/05/16 01:08:07;;;;;;;;;;;13.90;99.90;;;;;;5069293;28;19963;-69
2022/05/16 01:10:35;;;;;;;;;;;13.90;99.90;;;;;;5070390;28;19925;-69
2022/05/16 01:13:03;;;;;;;;;;;14.00;99.90;;;;;;5067105;28;19952;-67
2022/05/16 01:15:32;;;;;;;;;;;14.00;99.90;;;;;;5067284;28;20011;-67
2022/05/16 01:18:00;;;;;;;;;;;14.00;99.90;;;;;;5077147;28;19928;-68
2022/05/16 01:20:43;;;;;;;;;;;14.00;99.90;;;;;;5078254;28;19963;-68
2022/05/16 01:23:12;;;;;;;;;;;14.10;99.90;;;;;;5082765;28;19931;-68
2022/05/16 01:25:39;;;;;;;;;;;14.00;99.90;;;;;;5062185;28;20028;-67
2022/05/16 01:28:05;;;;;;;;;;;14.00;99.90;;;;;;5070065;28;19925;-68
2022/05/16 01:30:52;;;;;;;;;;;14.00;99.90;;;;;;5061350;28;19990;-69
2022/05/16 01:33:20;;;;;;;;;;;14.10;99.90;;;;;;5069512;28;19975;-67
2022/05/16 01:35:47;;;;;;;;;;;14.10;99.90;;;;;;5072925;28;20007;-68
2022/05/16 01:38:26;;;;;;;;;;;14.10;99.90;;;;;;5072070;28;19924;-68
2022/05/16 01:40:54;;;;;;;;;;;14.10;99.90;;;;;;5064911;28;19931;-68
2022/05/16 01:43:22;;;;;;;;;;;14.10;99.90;;;;;;5067788;28;19928;-69
2022/05/16 01:45:49;;;;;;;;;;;14.00;99.90;;;;;;5071698;28;19933;-68
2022/05/16 01:48:16;;;;;;;;;;;14.00;99.90;;;;;;5065574;28;20306;-67
2022/05/16 01:50:46;;;;;;;;;;;14.00;99.90;;;;;;5070680;28;25058;-68
2022/05/16 01:53:13;;;;;;;;;;;13.90;99.90;;;;;;5039957;28;81166;-68
2022/05/16 01:55:40;;;;;;;;;;;14.00;99.90;;;;;;5065867;28;19964;-68
2022/05/16 01:58:07;;;;;;;;;;;14.00;99.90;;;;;;5071927;28;25105;-68
2022/05/16 02:00:34;;;;;;;;;;;14.00;99.90;;;;;;5064177;28;19931;-68
2022/05/16 02:03:00;;;;;;;;;;;14.10;99.90;;;;;;5071853;28;19948;-68
2022/05/16 02:05:28;;;;;;;;;;;14.10;99.90;;;;;;5066654;28;20501;-68
2022/05/16 02:07:55;;;;;;;;;;;14.10;99.90;;;;;;5067599;28;19932;-68
2022/05/16 02:10:22;;;;;;;;;;;14.10;99.90;;;;;;5064250;28;19932;-68
2022/05/16 02:12:50;;;;;;;;;;;14.20;99.90;;;;;;5070721;28;19939;-68
2022/05/16 02:15:19;;;;;;;;;;;14.30;99.90;;;;;;5067027;28;19924;-68
2022/05/16 02:17:46;;;;;;;;;;;14.40;99.90;;;;;;5056180;28;20035;-68
2022/05/16 02:20:13;;;;;;;;;;;14.40;99.90;;;;;;5066288;28;19925;-69
2022/05/16 02:25:25;;;;;;;;;;;14.40;99.90;;;;;;5072116;28;20595;-68
2022/05/16 02:27:53;;;;;;;;;;;14.40;99.90;;;;;;5058722;28;20007;-68
2022/05/16 02:30:23;;;;;;;;;;;14.30;99.90;;;;;;5063229;28;20397;-68
2022/05/16 02:32:51;;;;;;;;;;;14.30;99.90;;;;;;5067694;28;19977;-68
2022/05/16 02:35:18;;;;;;;;;;;14.30;99.90;;;;;;5078044;28;20019;-68
2022/05/16 02:37:50;;;;;;;;;;;14.30;99.90;;;;;;5077091;28;19972;-68
2022/05/16 02:40:17;;;;;;;;;;;14.30;99.90;;;;;;5078167;28;20612;-68
2022/05/16 02:42:44;;;;;;;;;;;14.20;99.90;;;;;;5066759;28;19924;-68
2022/05/16 02:45:11;;;;;;;;;;;14.10;99.90;;;;;;5059832;28;19946;-68
2022/05/16 02:47:37;;;;;;;;;;;14.00;99.90;;;;;;5071375;28;21501;-68
2022/05/16 02:50:04;;;;;;;;;;;14.00;99.90;;;;;;5066648;28;20283;-68
2022/05/16 02:52:31;;;;;;;;;;;14.00;99.90;;;;;;5071480;28;19939;-68
2022/05/16 02:55:00;;;;;;;;;;;14.00;99.90;;;;;;5061954;28;19929;-69
2022/05/16 02:57:30;;;;;;;;;;;14.00;99.90;;;;;;5066042;28;20563;-68
2022/05/16 02:59:57;;;;;;;;;;;13.90;99.90;;;;;;5079020;28;19932;-68
2022/05/16 03:02:24;;;;;;;;;;;13.90;99.90;;;;;;5070992;28;19932;-68
2022/05/16 03:04:51;;;;;;;;;;;13.90;99.90;;;;;;5071037;28;19936;-68
2022/05/16 03:07:18;;;;;;;;;;;13.90;99.90;;;;;;5064673;28;20019;-68
2022/05/16 03:09:47;;;;;;;;;;;13.90;99.90;;;;;;5069447;28;19952;-68
2022/05/16 03:12:14;;;;;;;;;;;13.90;99.90;;;;;;5072016;28;19977;-68
2022/05/16 03:14:40;;;;;;;;;;;13.90;99.90;;;;;;5061330;28;19925;-67
2022/05/16 03:17:07;;;;;;;;;;;13.90;99.90;;;;;;5083435;28;20011;-67
2022/05/16 03:19:35;;;;;;;;;;;13.80;99.90;;;;;;5067142;28;19928;-68
2022/05/16 03:22:06;;;;;;;;;;;13.80;99.90;;;;;;5068807;28;19932;-69
2022/05/16 03:24:36;;;;;;;;;;;13.70;99.90;;;;;;5054790;28;19925;-68
2022/05/16 03:27:03;;;;;;;;;;;13.70;99.90;;;;;;5067394;28;19931;-68
2022/05/16 03:29:29;;;;;;;;;;;13.60;99.90;;;;;;5061344;28;19931;-69
2022/05/16 03:31:56;;;;;;;;;;;13.60;99.90;;;;;;5069177;28;20568;-69
2022/05/16 03:34:23;;;;;;;;;;;13.60;99.90;;;;;;5071742;28;19968;-69
2022/05/16 03:36:50;;;;;;;;;;;13.60;99.90;;;;;;5072983;28;19925;-68
2022/05/16 03:42:07;;;;;;;;;;;13.60;99.90;;;;;;5064013;28;19931;-69
2022/05/16 03:44:34;;;;;;;;;;;13.60;99.90;;;;;;5070523;28;19982;-69
2022/05/16 03:47:01;;;;;;;;;;;13.60;99.90;;;;;;5064960;28;20011;-69
2022/05/16 03:49:30;;;;;;;;;;;13.70;99.90;;;;;;5065425;28;19969;-69
2022/05/16 03:51:57;;;;;;;;;;;13.70;99.90;;;;;;5063188;28;20589;-69
2022/05/16 03:54:29;;;;;;;;;;;13.70;99.90;;;;;;5059989;28;20317;-69
2022/05/16 03:56:55;;;;;;;;;;;13.80;99.90;;;;;;5075214;28;20409;-69
2022/05/16 03:59:22;;;;;;;;;;;13.80;99.90;;;;;;5070256;28;19939;-68
2022/05/16 04:01:52;;;;;;;;;;;13.90;99.90;;;;;;5069618;28;20348;-69
2022/05/16 04:04:19;;;;;;;;;;;14.00;99.90;;;;;;5067831;28;19932;-69
2022/05/16 04:06:46;;;;;;;;;;;14.10;99.90;;;;;;5061097;28;19931;-69
2022/05/16 04:09:13;;;;;;;;;;;14.20;99.90;;;;;;5063616;28;20011;-69
2022/05/16 04:11:39;;;;;;;;;;;14.20;99.90;;;;;;5072595;28;19931;-69
2022/05/16 04:14:07;;;;;;;;;;;14.20;99.90;;;;;;5068832;28;19933;-68
2022/05/16 04:16:33;;;;;;;;;;;14.20;99.90;;;;;;5062858;28;19928;-68
2022/05/16 04:19:07;;;;;;;;;;;14.20;99.90;;;;;;5061990;28;19929;-68
2022/05/16 04:21:37;;;;;;;;;;;14.20;99.90;;;;;;5061041;28;19932;-69
2022/05/16 04:24:05;;;;;;;;;;;14.30;99.90;;;;;;5061889;28;20011;-69
2022/05/16 04:26:32;;;;;;;;;;;14.30;99.90;;;;;;5091701;28;20316;-68
2022/05/16 04:28:59;;;;;;;;;;;14.30;99.90;;;;;;5057692;28;20326;-69
2022/05/16 04:31:26;;;;;;;;;;;14.40;99.90;;;;;;5066142;28;19925;-69
2022/05/16 04:33:53;;;;;;;;;;;14.40;99.90;;;;;;5064845;28;19968;-68
2022/05/16 04:36:19;;;;;;;;;;;14.50;99.90;;;;;;5057692;28;20404;-68
2022/05/16 04:38:46;;;;;;;;;;;14.50;99.90;;;;;;5058890;28;20035;-68
2022/05/16 04:44:00;;;;;;;;;;;14.50;99.90;;;;;;5062304;28;19925;-68
2022/05/16 04:46:26;;;;;;;;;;;14.60;99.90;;;;;;5071171;28;20541;-69
2022/05/16 04:48:53;;;;;;;;;;;14.70;99.90;;;;;;5076469;28;19936;-68
2022/05/16 04:51:20;;;;;;;;;;;15.00;99.90;;;;;;5071688;28;20329;-68
2022/05/16 04:53:52;;;;;;;;;;;15.40;99.90;;;;;;5063654;28;21253;-69
2022/05/16 04:56:18;;;;;;;;;;;16.00;99.90;;;;;;5053449;28;19930;-68
2022/05/16 04:58:46;;;;;;;;;;;16.70;99.90;;;;;;5060823;28;19928;-67
2022/05/16 05:01:13;;;;;;;;;;;17.20;99.90;;;;;;5064411;28;20015;-67
2022/05/16 05:03:41;;;;;;;;;;;17.50;99.90;;;;;;5061544;28;19936;-68
2022/05/16 05:06:07;;;;;;;;;;;17.70;99.90;;;;;;5058173;28;19956;-68
2022/05/16 05:08:34;;;;;;;;;;;17.60;99.90;;;;;;5055477;28;20406;-67
2022/05/16 05:16:40;;;;;;;;;;;18.70;99.90;;;;;;5063905;28;19925;-66
2022/05/16 05:19:07;;;;;;;;;;;19.20;99.90;;;;;;5058734;28;19929;-66
2022/05/16 05:21:37;;;;;;;;;;;19.80;99.90;;;;;;5058968;28;19925;-66
2022/05/16 05:24:05;;;;;;;;;;;20.20;99.90;;;;;;5057468;28;19928;-65
2022/05/16 05:26:33;;;;;;;;;;;19.90;99.90;;;;;;5057198;28;20290;-66
2022/05/16 05:29:00;;;;;;;;;;;19.40;99.90;;;;;;5063999;28;20421;-65
2022/05/16 05:31:27;;;;;;;;;;;19.00;99.90;;;;;;5063965;28;19925;-66
2022/05/16 05:33:54;;;;;;;;;;;18.60;99.90;;;;;;5062916;28;19925;-65
2022/05/16 05:36:21;;;;;;;;;;;18.40;99.90;;;;;;5060468;28;19964;-66
2022/05/16 05:38:51;;;;;;;;;;;18.20;99.90;;;;;;5061656;28;19928;-66
2022/05/16 05:41:19;;;;;;;;;;;18.10;99.90;;;;;;5066501;28;19935;-67
2022/05/16 05:43:45;;;;;;;;;;;18.00;99.90;;;;;;5061155;28;20596;-67
2022/05/16 05:46:12;;;;;;;;;;;18.00;99.90;;;;;;5068183;28;20001;-67
2022/05/16 05:48:39;;;;;;;;;;;17.90;99.90;;;;;;5068120;28;19936;-66
2022/05/16 05:51:05;;;;;;;;;;;17.90;99.90;;;;;;5071867;28;19983;-66
2022/05/16 05:53:32;;;;;;;;;;;17.80;99.90;;;;;;5046298;28;19950;-68
2022/05/16 05:55:59;;;;;;;;;;;17.70;99.90;;;;;;5055252;28;19929;-66
2022/05/16 05:58:26;;;;;;;;;;;17.90;99.90;;;;;;5054913;28;19929;-66
2022/05/16 06:00:53;;;;;;;;;;;17.90;99.90;;;;;;5061583;28;19933;-65
2022/05/16 06:03:20;;;;;;;;;;;18.00;99.90;;;;;;5058762;28;19933;-65
2022/05/16 06:05:46;;;;;;;;;;;18.40;99.90;;;;;;5065207;28;20450;-66
2022/05/16 06:08:13;;;;;;;;;;;19.20;99.90;;;;;;5059849;28;19931;-66
2022/05/16 06:10:40;;;;;;;;;;;20.10;99.90;;;;;;5058316;28;19924;-67
2022/05/16 06:13:07;;;;;;;;;;;20.30;99.90;;;;;;5062538;28;20357;-66
2022/05/16 06:15:34;;;;;;;;;;;20.30;99.90;;;;;;5062202;28;19931;-66
2022/05/16 06:18:01;;;;;;;;;;;20.20;99.90;;;;;;5052478;28;19968;-67
2022/05/16 06:20:28;;;;;;;;;;;19.90;99.90;;;;;;5063364;28;19928;-66
2022/05/16 06:22:55;;;;;;;;;;;19.80;99.90;;;;;;5057544;28;20021;-67
2022/05/16 06:25:31;;;;;;;;;;;19.50;99.90;;;;;;5058142;28;19931;-68
2022/05/16 06:27:59;;;;;;;;;;;19.20;99.90;;;;;;5056767;28;19940;-67
2022/05/16 06:30:26;;;;;;;;;;;18.60;99.90;;;;;;5061470;28;19935;-67
2022/05/16 06:32:53;;;;;;;;;;;18.20;99.90;;;;;;5060639;28;19928;-66
2022/05/16 06:35:19;;;;;;;;;;;18.00;99.90;;;;;;5057914;28;19938;-67
2022/05/16 06:37:49;;;;;;;;;;;17.90;99.90;;;;;;5061609;28;20399;-66
2022/05/16 06:40:17;;;;;;;;;;;17.90;99.90;;;;;;5054802;28;20621;-67
2022/05/16 06:42:45;;;;;;;;;;;17.80;99.90;;;;;;5058669;28;19928;-66
2022/05/16 06:45:12;;;;;;;;;;;17.80;99.90;;;;;;5063792;28;19928;-65
2022/05/16 06:47:40;;;;;;;;;;;18.00;99.90;;;;;;5057475;28;19929;-66
2022/05/16 06:50:06;;;;;;;;;;;18.00;99.90;;;;;;5060004;28;20584;-66
2022/05/16 06:52:33;;;;;;;;;;;18.10;99.90;;;;;;5063830;28;20032;-66
2022/05/16 06:55:01;;;;;;;;;;;18.10;99.90;;;;;;5053445;28;19928;-66
2022/05/16 06:57:28;;;;;;;;;;;18.20;99.90;;;;;;5061884;28;20419;-66
2022/05/16 06:59:54;;;;;;;;;;;18.40;99.90;;;;;;5059452;28;19979;-66
2022/05/16 07:02:21;;;;;;;;;;;18.60;99.90;;;;;;5059917;28;19925;-65
2022/05/16 07:04:48;;;;;;;;;;;18.80;99.90;;;;;;5057883;28;19986;-67
2022/05/16 07:07:16;;;;;;;;;;;18.90;99.90;;;;;;5058630;28;20043;-66
2022/05/16 07:09:42;;;;;;;;;;;19.00;99.90;;;;;;5055051;28;20370;-65
2022/05/16 07:12:09;;;;;;;;;;;19.30;99.90;;;;;;5059945;28;19940;-65
2022/05/16 07:14:38;;;;;;;;;;;19.50;99.90;;;;;;5059352;28;20290;-64
2022/05/16 07:17:05;;;;;;;;;;;19.90;99.90;;;;;;5070258;28;19932;-65
2022/05/16 07:19:34;;;;;;;;;;;20.20;99.90;;;;;;5065518;28;19928;-67
2022/05/16 07:22:02;;;;;;;;;;;20.60;99.90;;;;;;5063163;28;19928;-66
2022/05/16 07:24:29;;;;;;;;;;;21.30;99.90;;;;;;5058189;28;20379;-64
2022/05/16 07:29:42;;;;;;;;;;;23.40;99.90;;;;;;5065623;28;20272;-64
2022/05/16 07:32:10;;;;;;;;;;;24.20;99.90;;;;;;5058804;28;19931;-64
2022/05/16 07:34:37;;;;;;;;;;;23.70;99.90;;;;;;5051798;28;19932;-64
2022/05/16 07:37:04;;;;;;;;;;;22.90;99.90;;;;;;5057769;28;20284;-64
2022/05/16 07:39:31;;;;;;;;;;;22.60;99.90;;;;;;5061849;28;19925;-64
2022/05/16 07:41:59;;;;;;;;;;;22.60;99.90;;;;;;5063090;28;19938;-64
2022/05/16 07:44:29;;;;;;;;;;;22.20;99.90;;;;;;5075210;28;20007;-64
2022/05/16 07:46:55;;;;;;;;;;;22.00;99.90;;;;;;5066802;28;19924;-64
2022/05/16 07:49:22;;;;;;;;;;;21.90;99.90;;;;;;5066950;28;19924;-65
2022/05/16 07:51:49;;;;;;;;;;;21.70;99.90;;;;;;5069732;28;19925;-64
2022/05/16 07:54:16;;;;;;;;;;;21.60;99.90;;;;;;5056027;28;19964;-64
2022/05/16 07:56:42;;;;;;;;;;;21.70;99.90;;;;;;5068347;28;19946;-64
2022/05/16 07:59:09;;;;;;;;;;;21.40;99.90;;;;;;5067501;28;19924;-64
2022/05/16 08:01:36;;;;;;;;;;;21.30;99.90;;;;;;5071023;28;19948;-64
2022/05/16 08:04:06;;;;;;;;;;;21.30;99.90;;;;;;5067416;28;19940;-64
2022/05/16 08:06:33;;;;;;;;;;;21.50;99.90;;;;;;5064888;28;19929;-65
2022/05/16 08:11:45;;;;;;;;;;;22.40;99.90;;;;;;5056163;28;19924;-64
2022/05/16 08:14:12;;;;;;;;;;;23.60;99.90;;;;;;5067962;28;19931;-63
2022/05/16 08:16:39;;;;;;;;;;;24.40;99.90;;;;;;5064753;28;20083;-64
2022/05/16 08:19:06;;;;;;;;;;;24.80;99.90;;;;;;5074534;28;19947;-64
2022/05/16 08:21:33;;;;;;;;;;;24.70;99.90;;;;;;5057662;28;19925;-64
2022/05/16 08:24:01;;;;;;;;;;;24.20;99.90;;;;;;5065797;28;20326;-64
2022/05/16 08:26:28;;;;;;;;;;;23.90;99.90;;;;;;5060068;28;19931;-64
2022/05/16 08:28:54;;;;;;;;;;;24.10;99.90;;;;;;5063812;28;20019;-65
2022/05/16 08:31:21;;;;;;;;;;;24.10;99.90;;;;;;5070988;28;19968;-64
2022/05/16 08:33:50;;;;;;;;;;;23.70;99.90;;;;;;5073536;28;19982;-63
2022/05/16 08:41:53;;;;;;;;;;;25.10;99.90;;;;;;5080471;28;19925;-64
2022/05/16 08:44:22;;;;;;;;;;;25.80;99.90;;;;;;5066755;28;19983;-63
2022/05/16 08:46:55;;;;;;;;;;;26.70;99.90;;;;;;5081830;28;20019;-64
2022/05/16 08:49:26;;;;;;;;;;;27.60;99.90;;;;;;5068090;28;20395;-64
2022/05/16 08:51:59;;;;;;;;;;;28.20;99.90;;;;;;5073918;28;19933;-63
2022/05/16 08:54:45;;;;;;;;;;;27.80;99.90;;;;;;5100237;28;20306;-63
2022/05/16 08:57:14;;;;;;;;;;;28.00;99.90;;;;;;5092601;27;19968;-63
2022/05/16 08:59:43;;;;;;;;;;;28.20;99.90;;;;;;5056966;28;19932;-63
2022/05/16 09:02:09;;;;;;;;;;;28.50;99.90;;;;;;5052141;28;19924;-64
2022/05/16 09:04:43;;;;;;;;;;;28.20;99.90;;;;;;5067510;28;20310;-63
2022/05/16 09:07:16;;;;;;;;;;;28.30;99.90;;;;;;5059416;28;19931;-65
2022/05/16 09:09:57;;;;;;;;;;;28.70;99.90;;;;;;5063091;28;20491;-64
2022/05/16 09:12:29;;;;;;;;;;;29.00;99.90;;;;;;5057503;28;19924;-64
2022/05/16 09:15:03;;;;;;;;;;;30.00;99.90;;;;;;5102822;28;19931;-64
2022/05/16 09:17:49;;;;;;;;;;;30.50;99.90;;;;;;5066223;28;19928;-64
2022/05/16 09:20:15;;;;;;;;;;;30.60;99.90;;;;;;5046798;28;19933;-63
2022/05/16 09:23:01;;;;;;;;;;;30.70;99.50;;;;;;5062474;28;19933;-64
2022/05/16 09:25:57;;;;;;;;;;;30.90;99.90;;;;;;5075331;28;19924;-63
2022/05/16 09:28:37;;;;;;;;;;;30.60;99.90;;;;;;5052943;28;19935;-64
2022/05/16 09:31:09;;;;;;;;;;;30.40;99.40;;;;;;5060300;28;20016;-64
2022/05/16 09:33:40;;;;;;;;;;;30.00;99.90;;;;;;5057395;28;20660;-64
2022/05/16 09:36:08;;;;;;;;;;;29.30;99.80;;;;;;5058642;28;19931;-61
2022/05/16 09:38:43;;;;;;;;;;;28.90;99.90;;;;;;5057020;28;19929;-63
2022/05/16 09:41:21;;;;;;;;;;;28.80;99.90;;;;;;5058508;28;19951;-63
2022/05/16 09:43:56;;;;;;;;;;;29.30;99.90;;;;;;5049619;28;19935;-63
2022/05/16 09:46:25;;;;;;;;;;;29.90;99.90;;;;;;5051455;28;19924;-63
2022/05/16 09:49:02;;;;;;;;;;;30.60;99.50;;;;;;5072506;28;20035;-64
2022/05/16 09:51:38;;;;;;;;;;;30.60;98.90;;;;;;5061232;28;19932;-63
2022/05/16 09:54:13;;;;;;;;;;;30.80;99.30;;;;;;5061127;28;19924;-63
2022/05/16 09:57:02;;;;;;;;;;;30.90;99.70;;;;;;5060349;28;19931;-63
2022/05/16 09:59:33;;;;;;;;;;;31.40;98.90;;;;;;5067526;28;19939;-64
2022/05/16 10:02:14;;;;;;;;;;;32.10;98.40;;;;;;5059655;28;19932;-64
2022/05/16 10:04:55;;;;;;;;;;;32.00;97.80;;;;;;5062309;28;19929;-64
2022/05/16 10:07:50;;;;;;;;;;;32.10;98.00;;;;;;5062719;28;20394;-64
2022/05/16 10:10:20;;;;;;;;;;;32.70;96.90;;;;;;5002966;28;20348;-63
2022/05/16 10:12:48;;;;;;;;;;;32.40;96.80;;;;;;5005866;28;19940;-64
2022/05/16 10:15:35;;;;;;;;;;;32.00;97.30;;;;;;5008870;28;19953;-63
2022/05/16 10:18:04;;;;;;;;;;;32.00;97.30;;;;;;4993020;28;19929;-64
2022/05/16 10:20:34;;;;;;;;;;;31.70;97.60;;;;;;5003927;28;19936;-63
2022/05/16 10:23:02;;;;;;;;;;;31.50;97.80;;;;;;5010383;28;19948;-64
2022/05/16 10:25:41;;;;;;;;;;;31.70;98.00;;;;;;5009125;28;19932;-64
2022/05/16 10:28:10;;;;;;;;;;;32.40;97.60;;;;;;5005517;28;19925;-62
2022/05/16 10:33:25;;;;;;;;;;;32.50;96.60;;;;;;4986466;28;19941;-64
2022/05/16 10:36:05;;;;;;;;;;;32.10;98.00;;;;;;5019892;28;19939;-62
2022/05/16 10:38:31;;;;;;;;;;;32.10;97.10;;;;;;5005941;28;20271;-63
2022/05/16 10:41:00;;;;;;;;;;;31.60;97.50;;;;;;5008089;28;20012;-62
2022/05/16 10:43:45;;;;;;;;;;;31.20;97.70;;;;;;5005798;28;19929;-63
2022/05/16 10:46:18;;;;;;;;;;;30.70;98.80;;;;;;5015860;28;20011;-63
2022/05/16 10:49:00;;;;;;;;;;;30.80;99.30;;;;;;5061579;28;20497;-62
2022/05/16 10:51:27;;;;;;;;;;;30.90;98.20;;;;;;5066717;28;19931;-63
2022/05/16 10:53:57;;;;;;;;;;;30.80;98.40;;;;;;5057707;28;19925;-63
2022/05/16 10:56:38;;;;;;;;;;;30.80;98.50;;;;;;5093308;28;19933;-63
2022/05/16 10:59:23;;;;;;;;;;;31.50;99.00;;;;;;5063275;28;19931;-64
2022/05/16 11:01:50;;;;;;;;;;;32.50;99.40;;;;;;5059960;28;19933;-64
2022/05/16 11:04:40;;;;;;;;;;;33.60;97.20;;;;;;5060228;28;19982;-63
2022/05/16 11:07:26;;;;;;;;;;;33.80;96.50;;;;;;5065157;28;19924;-64
2022/05/16 11:10:11;;;;;;;;;;;33.60;96.10;;;;;;5066864;28;19928;-63
2022/05/16 11:12:48;;;;;;;;;;;33.60;96.60;;;;;;5060013;28;20513;-64
2022/05/16 11:15:24;;;;;;;;;;;33.30;96.40;;;;;;5057641;28;19929;-63
2022/05/16 11:18:11;;;;;;;;;;;33.00;96.30;;;;;;5068904;28;19932;-63
2022/05/16 11:20:42;;;;;;;;;;;32.30;96.40;;;;;;5052976;28;19955;-63
2022/05/16 11:23:08;;;;;;;;;;;31.40;97.10;;;;;;5080560;28;19928;-63
2022/05/16 11:25:53;;;;;;;;;;;30.90;98.20;;;;;;5068920;28;20013;-63
2022/05/16 11:28:40;;;;;;;;;;;30.90;98.10;;;;;;5067812;28;19955;-65
2022/05/16 11:31:08;;;;;;;;;;;30.60;99.00;;;;;;5071339;28;19931;-67
2022/05/16 11:33:38;;;;;;;;;;;30.60;98.60;;;;;;5064638;28;19964;-67
2022/05/16 11:36:17;;;;;;;;;;;30.60;99.00;;;;;;5074080;28;19925;-66
2022/05/16 11:38:47;;;;;;;;;;;30.60;98.50;;;;;;5072502;28;19924;-66
2022/05/16 11:41:26;;;;;;;;;;;30.50;98.70;;;;;;5064393;28;20410;-66
2022/05/16 11:44:02;;;;;;;;;;;30.40;98.60;;;;;;5065867;28;19928;-67
2022/05/16 11:46:32;;;;;;;;;;;29.70;98.70;;;;;;5066727;28;20410;-68
2022/05/16 11:49:18;;;;;;;;;;;29.70;99.40;;;;;;5060787;28;19924;-68
2022/05/16 11:52:13;;;;;;;;;;;30.40;98.90;;;;;;5068331;28;20429;-68
2022/05/16 11:54:44;;;;;;;;;;;30.40;98.60;;;;;;5063667;28;19925;-68
2022/05/16 12:02:51;;;;;;;;;;;28.70;99.70;;;;;;5073035;28;19925;-68
2022/05/16 12:05:20;;;;;;;;;;;28.50;99.80;;;;;;5069242;28;19946;-67
2022/05/16 12:07:56;;;;;;;;;;;28.10;99.90;;;;;;5067814;28;19970;-67
2022/05/16 12:10:25;;;;;;;;;;;27.60;99.90;;;;;;5064813;28;20031;-66
2022/05/16 12:13:10;;;;;;;;;;;27.30;99.90;;;;;;5068765;28;19943;-67
2022/05/16 12:15:38;;;;;;;;;;;27.00;99.90;;;;;;5082367;28;20624;-66
2022/05/16 12:18:07;;;;;;;;;;;26.60;99.90;;;;;;5094936;27;19924;-67
2022/05/16 12:20:38;;;;;;;;;;;26.40;99.90;;;;;;5065458;28;19925;-67
2022/05/16 12:23:06;;;;;;;;;;;26.40;99.90;;;;;;5066436;28;19962;-67
2022/05/16 12:25:39;;;;;;;;;;;26.80;99.90;;;;;;5067098;28;19935;-66
2022/05/16 12:28:11;;;;;;;;;;;27.50;99.90;;;;;;5074064;28;19924;-69
2022/05/16 12:30:38;;;;;;;;;;;27.40;99.90;;;;;;5076734;28;19946;-70
2022/05/16 12:33:29;;;;;;;;;;;27.00;99.90;;;;;;5073051;28;19931;-67
2022/05/16 12:35:56;;;;;;;;;;;26.60;99.90;;;;;;5070398;28;20028;-67
2022/05/16 12:38:25;;;;;;;;;;;26.60;99.90;;;;;;5069885;28;19971;-68
2022/05/16 12:41:01;;;;;;;;;;;26.40;99.90;;;;;;5072894;28;19963;-67
2022/05/16 12:43:43;;;;;;;;;;;26.40;99.90;;;;;;5069997;28;19924;-68
2022/05/16 12:46:11;;;;;;;;;;;26.30;99.90;;;;;;5063240;28;19934;-70
2022/05/16 12:48:41;;;;;;;;;;;26.10;99.90;;;;;;5059973;28;19933;-69
2022/05/16 12:51:14;;;;;;;;;;;26.20;99.90;;;;;;5075315;28;19924;-71
2022/05/16 12:54:00;;;;;;;;;;;26.20;99.90;;;;;;5070984;28;19928;-67
2022/05/16 12:56:33;;;;;;;;;;;26.20;99.90;;;;;;5061199;28;20500;-68
2022/05/16 12:59:06;;;;;;;;;;;26.40;99.90;;;;;;5065658;28;19939;-67
2022/05/16 13:01:41;;;;;;;;;;;26.70;99.90;;;;;;5061747;28;19935;-68
2022/05/16 13:04:20;;;;;;;;;;;26.90;99.90;;;;;;5062584;28;19950;-68
2022/05/16 13:06:59;;;;;;;;;;;27.40;99.60;;;;;;5068838;28;20032;-68
2022/05/16 13:09:34;;;;;;;;;;;28.10;99.20;;;;;;5066130;28;19924;-66
2022/05/16 13:12:06;;;;;;;;;;;28.80;99.20;;;;;;5070381;28;20067;-68
2022/05/16 13:14:43;;;;;;;;;;;29.20;98.90;;;;;;5057724;28;20381;-69
2022/05/16 13:17:13;;;;;;;;;;;29.30;98.70;;;;;;5065420;28;19931;-68
2022/05/16 13:19:44;;;;;;;;;;;29.50;99.10;;;;;;5065991;28;19932;-67
2022/05/16 13:22:11;;;;;;;;;;;29.50;99.90;;;;;;5070240;28;19960;-66
2022/05/16 13:24:37;;;;;;;;;;;29.30;99.00;;;;;;5062834;28;19924;-68
2022/05/16 13:30:05;;;;;;;;;;;28.90;99.80;;;;;;5069395;28;19936;-68
2022/05/16 13:32:32;;;;;;;;;;;29.00;99.60;;;;;;5071319;28;20614;-71
2022/05/16 13:35:00;;;;;;;;;;;29.20;99.60;;;;;;5076953;28;19932;-67
2022/05/16 13:37:38;;;;;;;;;;;29.20;99.00;;;;;;5065483;28;19924;-68
2022/05/16 13:40:06;;;;;;;;;;;28.90;99.80;;;;;;5064919;28;20445;-67
2022/05/16 13:42:34;;;;;;;;;;;28.60;99.70;;;;;;5061442;28;20023;-67
2022/05/16 13:45:02;;;;;;;;;;;28.40;99.90;;;;;;5063063;28;19947;-68
2022/05/16 13:47:30;;;;;;;;;;;28.10;99.90;;;;;;5069169;28;19939;-68
2022/05/16 13:49:57;;;;;;;;;;;27.90;99.90;;;;;;5071133;28;19931;-67
2022/05/16 13:52:25;;;;;;;;;;;27.70;99.90;;;;;;5071337;28;20059;-68
2022/05/16 13:54:57;;;;;;;;;;;27.60;99.90;;;;;;5059977;28;19955;-69
2022/05/16 13:57:24;;;;;;;;;;;27.40;99.90;;;;;;5069844;28;19935;-67
2022/05/16 14:00:10;;;;;;;;;;;27.20;99.90;;;;;;5073049;28;19924;-68
2022/05/16 14:02:36;;;;;;;;;;;27.00;99.90;;;;;;5077812;28;19924;-68
2022/05/16 14:05:09;;;;;;;;;;;26.60;99.90;;;;;;5070500;28;20523;-68
2022/05/16 14:07:36;;;;;;;;;;;26.40;99.90;;;;;;5066181;28;20011;-67
2022/05/16 14:10:12;;;;;;;;;;;25.90;99.90;;;;;;5072989;28;19924;-68
2022/05/16 14:12:43;;;;;;;;;;;25.50;99.90;;;;;;5062972;28;20854;-67
2022/05/16 14:15:19;;;;;;;;;;;24.90;99.90;;;;;;5070482;28;20441;-68
2022/05/16 14:17:58;;;;;;;;;;;24.40;99.90;;;;;;5070890;28;20551;-68
2022/05/16 14:20:24;;;;;;;;;;;24.00;99.90;;;;;;5067218;28;19931;-68
2022/05/16 14:22:56;;;;;;;;;;;23.60;99.90;;;;;;5076871;28;19943;-68
2022/05/16 14:25:31;;;;;;;;;;;23.00;99.90;;;;;;5094721;27;19925;-68
2022/05/16 14:27:58;;;;;;;;;;;22.40;99.90;;;;;;5074366;28;19939;-69
2022/05/16 14:30:27;;;;;;;;;;;22.00;99.90;;;;;;5069700;28;19928;-69
2022/05/16 14:33:06;;;;;;;;;;;21.70;99.90;;;;;;5065667;28;19932;-68
2022/05/16 14:35:34;;;;;;;;;;;21.60;99.90;;;;;;5074139;28;19932;-69
2022/05/16 14:38:13;;;;;;;;;;;21.50;99.90;;;;;;5074671;28;19924;-68
2022/05/16 14:40:42;;;;;;;;;;;21.70;99.90;;;;;;5073391;28;19975;-68
2022/05/16 14:43:27;;;;;;;;;;;21.80;99.90;;;;;;5075023;28;19992;-68
2022/05/16 14:48:40;;;;;;;;;;;21.80;99.90;;;;;;5075298;28;20415;-70
2022/05/16 14:51:09;;;;;;;;;;;21.80;99.90;;;;;;5073773;28;20389;-67
2022/05/16 14:53:38;;;;;;;;;;;21.80;99.90;;;;;;5069177;28;20026;-69
2022/05/16 14:56:05;;;;;;;;;;;21.80;99.90;;;;;;5063667;28;22042;-68
2022/05/16 14:58:31;;;;;;;;;;;21.70;99.90;;;;;;5070991;28;20014;-70
2022/05/16 15:06:41;;;;;;;;;;;21.70;99.90;;;;;;5068363;28;19939;-69
2022/05/16 15:09:09;;;;;;;;;;;21.50;99.90;;;;;;5068189;28;20402;-69
2022/05/16 15:11:42;;;;;;;;;;;21.40;99.90;;;;;;5070551;28;19928;-70
2022/05/16 15:14:09;;;;;;;;;;;21.00;99.90;;;;;;5070889;28;19931;-69
2022/05/16 15:16:36;;;;;;;;;;;20.70;99.90;;;;;;5071552;28;19932;-68
2022/05/16 15:19:03;;;;;;;;;;;20.70;99.90;;;;;;5088603;28;19993;-69
2022/05/16 15:21:30;;;;;;;;;;;20.70;99.90;;;;;;5068861;28;20909;-69